Havre, Montana
Current Conditions -  °F | °C
As of 10:53 AM on Saturday 20 Dec 2014 (Local Time) from KHVR Reporting Station
Clear Clear  
Wind Chill: 26°   Ceiling: Unl
Heat Index: 36°   Visibility: 10mi
Dew Point: 24°   Wind: 18mph
Humidity: 62%   Direction: 220°SW
Pressure: 29.83"   Gusts: NA
Location:  48.55°N, 109.67°W
Report Text: KHVR 201753Z AUTO 22016KT 10SM CLR 02/M04 A2983 RMK AO2 SLP123 T00221044 10028 21011 56003
Loading
Personal Weather Stations






























Interactive Weather Map New forecast layout! Learn more

10-Day Weather Forecast

Advertisements
Track Severe Weather on mobile